createdAt,value
2022-10-19T02:31:55.503Z,0.00
2022-10-19T02:32:56.858Z,0.00
2022-10-19T02:33:57.217Z,0.00
2022-10-19T02:34:57.580Z,0.00
2022-10-19T02:35:57.948Z,0.00
2022-10-19T02:36:58.347Z,0.00
2022-10-19T02:37:58.662Z,0.00
2022-10-19T02:38:59.016Z,0.00
2022-10-19T02:39:59.384Z,0.00
2022-10-19T02:40:59.726Z,0.00
2022-10-19T02:42:00.106Z,0.00
2022-10-19T02:43:00.456Z,0.00
2022-10-19T02:44:00.821Z,0.00
2022-10-19T02:45:01.189Z,0.00
2022-10-19T02:46:07.547Z,0.00
2022-10-19T02:47:01.983Z,0.00
2022-10-19T02:48:02.259Z,0.00
2022-10-19T02:49:02.610Z,0.00
2022-10-19T02:50:02.985Z,0.00
2022-10-19T02:51:03.333Z,0.00
2022-10-19T02:52:03.758Z,0.00
2022-10-19T02:53:04.057Z,0.00
2022-10-19T02:54:05.410Z,0.00
2022-10-19T02:55:04.800Z,0.00
2022-10-19T02:56:05.133Z,0.00
2022-10-19T02:57:05.499Z,0.00
2022-10-19T02:58:05.861Z,0.00
2022-10-19T02:59:06.238Z,0.00
2022-10-19T03:00:06.625Z,0.00
2022-10-19T03:01:07.071Z,0.00
2022-10-19T03:02:07.350Z,0.00
2022-10-19T03:03:07.707Z,0.00
2022-10-19T03:04:08.058Z,0.00
2022-10-19T03:05:08.433Z,0.00
2022-10-19T03:06:08.830Z,0.00
2022-10-19T03:07:09.203Z,0.00
2022-10-19T03:08:09.524Z,0.00
2022-10-19T03:09:09.865Z,0.00
2022-10-19T03:10:10.214Z,0.00
2022-10-19T03:11:10.571Z,0.00
2022-10-19T03:12:10.935Z,0.00
2022-10-19T03:13:11.286Z,0.00
2022-10-19T03:14:11.666Z,0.00
2022-10-19T03:15:12.020Z,0.00
2022-10-19T03:16:12.411Z,0.00
2022-10-19T03:17:12.780Z,0.00
2022-10-19T03:18:13.099Z,0.00
2022-10-19T03:19:13.497Z,0.00
2022-10-19T03:20:13.815Z,0.00
2022-10-19T03:21:14.184Z,0.00
2022-10-19T03:22:14.592Z,0.00
2022-10-19T03:23:14.904Z,0.00
2022-10-19T03:24:15.257Z,0.00
2022-10-19T03:25:15.630Z,0.00
2022-10-19T03:26:15.980Z,0.00
2022-10-19T03:27:16.380Z,0.00
2022-10-19T03:28:16.697Z,0.00
2022-10-19T03:29:17.057Z,0.00
2022-10-19T03:30:17.452Z,0.00
2022-10-19T03:31:17.787Z,0.00
2022-10-19T03:32:18.174Z,0.00
2022-10-19T03:33:18.604Z,0.00
2022-10-19T03:34:18.886Z,0.00
2022-10-19T03:35:19.240Z,0.00
2022-10-19T03:36:19.608Z,0.00
2022-10-19T03:37:20.025Z,0.00
2022-10-19T03:38:20.516Z,0.00
2022-10-19T03:39:20.706Z,0.00
2022-10-19T03:40:21.070Z,0.00
2022-10-19T03:41:21.413Z,0.00
2022-10-19T03:42:21.829Z,0.00
2022-10-19T03:43:22.175Z,0.00
2022-10-19T03:44:22.577Z,0.00
2022-10-19T03:45:22.915Z,0.00
2022-10-19T03:46:23.261Z,0.00
2022-10-19T03:47:23.637Z,0.00
2022-10-19T03:48:23.993Z,0.00
2022-10-19T03:49:24.366Z,0.00
2022-10-19T03:50:24.719Z,0.00
2022-10-19T03:51:25.078Z,0.00
2022-10-19T03:52:25.459Z,0.00
2022-10-19T03:53:25.805Z,0.00
2022-10-19T03:54:27.457Z,0.00
2022-10-19T03:55:26.514Z,0.00
2022-10-19T03:56:26.869Z,0.00
2022-10-19T03:57:27.324Z,0.00
2022-10-19T03:58:27.610Z,0.00
2022-10-19T03:59:27.957Z,0.00
2022-10-19T04:00:28.317Z,0.00
2022-10-19T04:01:28.724Z,0.00
2022-10-19T04:02:29.065Z,0.00
2022-10-19T04:03:29.536Z,0.00
2022-10-19T04:04:29.759Z,0.00
2022-10-19T04:05:30.107Z,0.00
2022-10-19T04:06:30.473Z,0.00
2022-10-19T04:07:30.965Z,0.00
2022-10-19T04:08:31.210Z,0.00
2022-10-19T04:09:31.567Z,0.00
2022-10-19T04:10:31.941Z,0.00
2022-10-19T04:11:32.295Z,0.00
2022-10-19T04:12:32.664Z,0.00
2022-10-19T04:13:33.003Z,0.00
2022-10-19T04:14:45.663Z,0.00
2022-10-19T04:15:33.715Z,0.00
2022-10-19T04:16:34.176Z,0.00
2022-10-19T04:17:34.802Z,0.00
2022-10-19T04:18:34.810Z,0.00
2022-10-19T04:19:35.165Z,0.00
2022-10-19T04:20:35.530Z,0.00
2022-10-19T04:21:35.902Z,0.00
2022-10-19T04:22:36.398Z,0.00
2022-10-19T04:23:36.627Z,0.00
2022-10-19T04:24:36.979Z,0.00
2022-10-19T04:25:37.333Z,0.00
2022-10-19T04:26:37.705Z,0.00
2022-10-19T04:27:38.072Z,0.00
2022-10-19T04:28:38.496Z,0.00
2022-10-19T04:29:38.787Z,0.00
2022-10-19T04:30:39.158Z,0.00
2022-10-19T04:31:39.506Z,0.00
2022-10-19T04:32:39.900Z,0.00
2022-10-19T04:33:40.362Z,0.00
2022-10-19T04:34:40.653Z,0.00
2022-10-19T04:35:41.004Z,0.00
2022-10-19T04:36:41.346Z,0.00
2022-10-19T04:37:41.757Z,0.00
2022-10-19T04:38:42.062Z,0.00
2022-10-19T04:39:42.421Z,0.00
2022-10-19T04:40:42.777Z,0.00
2022-10-19T04:41:43.146Z,0.00
2022-10-19T04:42:43.509Z,0.00
2022-10-19T04:43:43.859Z,0.00
2022-10-19T04:44:44.213Z,0.00
2022-10-19T04:45:44.571Z,0.00
2022-10-19T04:46:44.920Z,0.00
2022-10-19T04:47:45.298Z,0.00
2022-10-19T04:48:45.657Z,0.00
2022-10-19T04:49:46.015Z,0.00
2022-10-19T04:50:46.360Z,0.00
2022-10-19T04:51:46.725Z,0.00
2022-10-19T04:52:47.097Z,0.00
2022-10-19T04:53:47.456Z,0.00
2022-10-19T04:54:47.775Z,0.00
2022-10-19T04:55:48.138Z,0.00
2022-10-19T04:56:48.497Z,0.00
2022-10-19T04:57:48.895Z,0.00
2022-10-19T04:58:49.255Z,0.00
2022-10-19T04:59:49.603Z,0.00
2022-10-19T05:00:50.045Z,0.00
2022-10-19T05:01:50.312Z,0.00
2022-10-19T05:02:50.686Z,0.00
2022-10-19T05:03:51.099Z,0.00
2022-10-19T05:04:51.411Z,0.00
2022-10-19T05:05:51.766Z,0.00
2022-10-19T05:06:52.122Z,0.00
2022-10-19T05:07:52.505Z,0.00
2022-10-19T05:08:52.855Z,0.00
2022-10-19T05:09:53.214Z,0.00
2022-10-19T05:10:53.563Z,0.00
2022-10-19T05:11:53.928Z,0.00
2022-10-19T05:12:54.311Z,0.00
2022-10-19T05:13:54.676Z,0.00
2022-10-19T05:14:55.061Z,0.00
2022-10-19T05:15:55.431Z,0.00
2022-10-19T05:16:55.810Z,0.00
2022-10-19T05:17:56.157Z,0.00
2022-10-19T05:18:56.321Z,1.00
2022-10-19T05:19:56.488Z,1.00
2022-10-19T05:20:56.696Z,1.00
2022-10-19T05:21:57.053Z,0.00
2022-10-19T05:22:57.178Z,2.00
2022-10-19T05:23:57.345Z,1.00
2022-10-19T05:24:58.259Z,0.00
2022-10-19T05:25:58.122Z,0.00
2022-10-19T05:26:58.362Z,2.00
2022-10-19T05:27:58.538Z,2.00
2022-10-19T05:28:58.875Z,1.00
2022-10-19T05:29:59.011Z,3.00
2022-10-19T05:30:59.267Z,6.00
2022-10-19T05:31:59.432Z,4.00
2022-10-19T05:32:59.641Z,7.00
2022-10-19T05:33:59.824Z,9.00
2022-10-19T05:34:59.953Z,8.00
2022-10-19T05:36:00.135Z,14.00
2022-10-19T05:37:00.346Z,15.00
2022-10-19T05:38:00.650Z,13.00
2022-10-19T05:39:00.903Z,20.00
2022-10-19T05:40:01.077Z,25.00
2022-10-19T05:41:01.235Z,27.00
2022-10-19T05:42:01.434Z,30.00
2022-10-19T05:43:01.633Z,35.00
2022-10-19T05:44:01.779Z,38.00
2022-10-19T05:45:01.948Z,48.00
2022-10-19T05:46:02.149Z,54.00
2022-10-19T05:47:02.439Z,59.00
2022-10-19T05:48:02.722Z,64.00
2022-10-19T05:49:02.889Z,76.00
2022-10-19T05:50:03.067Z,85.00
2022-10-19T05:51:03.353Z,94.00
2022-10-19T05:52:03.657Z,105.00
2022-10-19T05:53:03.947Z,107.00
2022-10-19T05:54:04.140Z,128.00
2022-10-19T05:55:04.532Z,141.00
2022-10-19T05:56:04.744Z,161.00
2022-10-19T05:57:04.908Z,177.00
2022-10-19T05:58:05.129Z,189.00
2022-10-19T05:59:05.258Z,211.00
2022-10-19T06:00:05.447Z,219.00
2022-10-19T06:01:05.741Z,237.00
2022-10-19T06:02:06.104Z,247.00
2022-10-19T06:03:06.251Z,261.00
2022-10-19T06:04:06.456Z,281.00
2022-10-19T06:05:06.724Z,306.00
2022-10-19T06:06:06.911Z,324.00
2022-10-19T06:07:07.192Z,346.00
2022-10-19T06:08:07.362Z,355.00
2022-10-19T06:09:07.516Z,349.00
2022-10-19T06:10:07.673Z,345.00
2022-10-19T06:11:07.886Z,350.00
2022-10-19T06:12:08.160Z,374.00
2022-10-19T06:13:08.457Z,400.00
2022-10-19T06:14:08.624Z,427.00
2022-10-19T14:00:46.206Z,4136.00
2022-10-19T14:01:47.418Z,4201.00
2022-10-19T14:02:47.564Z,4270.00
2022-10-19T14:03:47.776Z,4553.00
2022-10-19T14:04:47.914Z,4864.00
2022-10-19T14:05:48.117Z,4217.00
2022-10-19T14:06:48.288Z,3946.00
2022-10-19T14:07:48.519Z,4177.00
2022-10-19T14:08:48.782Z,4094.00
2022-10-19T14:09:48.884Z,4353.00
2022-10-19T14:11:00.471Z,4671.00
2022-10-19T14:11:49.250Z,4442.00
2022-10-19T14:12:49.447Z,4168.00
2022-10-19T14:13:49.677Z,3752.00
2022-10-19T14:14:49.945Z,3385.00
2022-10-19T14:15:50.092Z,3374.00
2022-10-19T14:16:50.228Z,3389.00
2022-10-19T14:17:50.384Z,3471.00
2022-10-19T14:18:50.591Z,3448.00
2022-10-19T14:19:50.782Z,3369.00
2022-10-19T14:20:50.985Z,3275.00
2022-10-19T14:21:51.128Z,3155.00
2022-10-19T14:22:51.324Z,3081.00
2022-10-19T14:23:51.513Z,3024.00
2022-10-19T14:24:51.705Z,3040.00
2022-10-19T14:25:51.923Z,3076.00
2022-10-19T14:26:52.081Z,3110.00
2022-10-19T14:27:52.291Z,3087.00
2022-10-19T14:28:52.479Z,3003.00
2022-10-19T14:29:52.674Z,2929.00
2022-10-19T14:30:52.920Z,2912.00
2022-10-19T14:31:53.063Z,2884.00
2022-10-19T14:32:54.761Z,2887.00
2022-10-19T14:33:53.436Z,2901.00
2022-10-19T14:34:53.787Z,2847.00
2022-10-19T14:35:53.849Z,2731.00
2022-10-19T14:36:54.034Z,2660.00
2022-10-19T14:37:54.261Z,2652.00
2022-10-19T14:38:54.419Z,2664.00
2022-10-19T14:39:54.627Z,2661.00
2022-10-19T14:40:54.837Z,2626.00
2022-10-19T14:41:54.986Z,2586.00
2022-10-19T14:42:55.184Z,2554.00
2022-10-19T14:43:55.351Z,2509.00
2022-10-19T14:44:55.545Z,2500.00
2022-10-19T14:45:55.750Z,2483.00
2022-10-19T14:46:55.918Z,2470.00
2022-10-19T14:47:56.062Z,2445.00
2022-10-19T14:48:56.284Z,2442.00
2022-10-19T14:49:56.418Z,2431.00
2022-10-19T14:50:56.634Z,2431.00
2022-10-19T14:51:56.822Z,2434.00
2022-10-19T14:52:57.000Z,2426.00
2022-10-19T14:53:57.155Z,2392.00
2022-10-19T14:54:57.353Z,2331.00
2022-10-19T14:55:57.566Z,2289.00
2022-10-19T14:56:57.739Z,2255.00
2022-10-19T14:57:57.931Z,2233.00
2022-10-19T14:58:58.127Z,2215.00
2022-10-19T14:59:58.322Z,2182.00
2022-10-19T15:00:58.537Z,2134.00
2022-10-19T15:01:58.752Z,2076.00
2022-10-19T15:02:58.908Z,2019.00
2022-10-19T15:03:59.081Z,1962.00
2022-10-19T15:04:59.267Z,1928.00
2022-10-19T15:05:59.477Z,1913.00
2022-10-19T15:06:59.645Z,1891.00
2022-10-19T15:07:59.812Z,1858.00
2022-10-19T15:09:00.011Z,1831.00
2022-10-19T15:10:00.210Z,1798.00
2022-10-19T15:11:00.425Z,1766.00
2022-10-19T15:12:00.604Z,1738.00
2022-10-19T15:13:00.789Z,1699.00
2022-10-19T15:14:00.979Z,1643.00
2022-10-19T15:15:01.170Z,1622.00
2022-10-19T15:16:01.376Z,1612.00
2022-10-19T15:17:01.564Z,1592.00
2022-10-19T15:18:01.958Z,1579.00
2022-10-19T15:19:01.920Z,1559.00
2022-10-19T15:20:02.270Z,1536.00
2022-10-19T15:21:12.117Z,1506.00
2022-10-19T15:22:02.481Z,1474.00
2022-10-19T15:23:02.664Z,1451.00
2022-10-19T15:24:02.860Z,1428.00
2022-10-19T15:25:03.048Z,1410.00
2022-10-19T15:26:03.212Z,1393.00
2022-10-19T15:27:09.384Z,1373.00
2022-10-19T15:28:03.675Z,1345.00
2022-10-19T15:29:03.795Z,1329.00
2022-10-19T15:30:03.937Z,1305.00
2022-10-19T15:31:04.217Z,1278.00
2022-10-19T15:32:04.304Z,1255.00
2022-10-19T15:33:04.518Z,1227.00
2022-10-19T15:34:04.674Z,1196.00
2022-10-19T15:35:07.585Z,1179.00
2022-10-19T15:36:05.252Z,1140.00
2022-10-19T15:37:07.323Z,1095.00
2022-10-19T15:38:05.432Z,1062.00
2022-10-19T15:39:24.566Z,1035.00
2022-10-19T15:40:05.835Z,1003.00
2022-10-19T15:41:06.142Z,968.00
2022-10-19T15:42:06.426Z,941.00
2022-10-19T15:43:06.726Z,914.00
2022-10-19T15:44:07.021Z,878.00
2022-10-19T15:45:07.220Z,839.00
2022-10-19T15:46:07.431Z,797.00
2022-10-19T15:47:07.597Z,756.00
2022-10-19T15:48:07.747Z,723.00
2022-10-19T15:49:07.929Z,694.00
2022-10-19T15:50:08.107Z,663.00
2022-10-19T15:51:08.409Z,634.00
2022-10-19T15:52:08.683Z,606.00
2022-10-19T15:53:08.990Z,578.00
2022-10-19T15:54:09.175Z,555.00
2022-10-19T15:55:09.344Z,531.00
2022-10-19T15:56:12.401Z,509.00
2022-10-19T15:57:09.848Z,486.00
2022-10-19T15:58:10.043Z,464.00
2022-10-19T15:59:10.205Z,442.00
2022-10-19T16:00:10.373Z,421.00
2022-10-19T16:01:10.564Z,402.00
2022-10-19T16:02:10.879Z,384.00
2022-10-19T16:03:11.156Z,365.00
2022-10-19T16:04:11.314Z,346.00
2022-10-19T16:05:11.626Z,329.00
2022-10-19T16:06:11.664Z,313.00
2022-10-19T16:07:11.826Z,297.00
2022-10-19T16:08:12.587Z,282.00
2022-10-19T16:09:12.223Z,267.00
2022-10-19T16:10:12.326Z,252.00
2022-10-19T16:11:12.520Z,238.00
2022-10-19T16:12:12.689Z,224.00
2022-10-19T16:13:12.884Z,211.00
2022-10-19T16:14:13.197Z,196.00
2022-10-19T16:15:13.472Z,183.00
2022-10-19T16:16:13.796Z,172.00
2022-10-19T16:17:13.971Z,159.00
2022-10-19T16:18:14.265Z,148.00
2022-10-19T16:19:14.557Z,136.00
2022-10-19T16:20:14.751Z,125.00
2022-10-19T16:21:15.074Z,113.00
2022-10-19T16:22:15.228Z,100.00
2022-10-19T16:23:15.545Z,93.00
2022-10-19T16:24:15.681Z,77.00
2022-10-19T16:25:15.866Z,75.00
2022-10-19T16:26:16.163Z,63.00
2022-10-19T16:27:16.487Z,59.00
2022-10-19T16:28:16.611Z,50.00
2022-10-19T16:29:16.902Z,45.00
2022-10-19T16:30:17.176Z,36.00
2022-10-19T16:31:17.410Z,33.00
2022-10-19T16:32:17.523Z,33.00
2022-10-19T16:33:17.707Z,22.00
2022-10-19T16:34:17.859Z,21.00
2022-10-19T16:35:18.152Z,20.00
2022-10-19T16:36:18.358Z,16.00
2022-10-19T16:37:18.501Z,13.00
2022-10-19T16:38:18.677Z,5.00
2022-10-19T16:39:18.883Z,10.00
2022-10-19T16:40:19.075Z,6.00
2022-10-19T16:41:19.314Z,5.00
2022-10-19T16:42:19.460Z,7.00
2022-10-19T16:43:19.750Z,5.00
2022-10-19T16:44:20.047Z,2.00
2022-10-19T16:45:20.347Z,3.00
2022-10-19T16:46:20.662Z,3.00
2022-10-19T16:47:20.812Z,1.00
2022-10-19T16:48:24.005Z,1.00
2022-10-19T16:49:21.134Z,2.00
2022-10-19T16:50:21.324Z,2.00
2022-10-19T16:51:21.765Z,0.00
2022-10-19T16:52:22.100Z,0.00
2022-10-19T16:53:22.483Z,0.00
2022-10-19T16:54:22.863Z,0.00
2022-10-19T16:55:23.245Z,0.00
2022-10-19T16:56:23.620Z,0.00
2022-10-19T16:57:23.833Z,1.00
2022-10-19T16:58:24.123Z,1.00
2022-10-19T16:59:24.426Z,1.00
2022-10-19T17:00:24.652Z,1.00
2022-10-19T17:01:25.035Z,1.00
2022-10-19T17:02:25.249Z,1.00
2022-10-19T17:03:25.673Z,0.00
2022-10-19T17:04:26.058Z,0.00
2022-10-19T17:05:26.421Z,0.00
2022-10-19T17:06:26.767Z,0.00
2022-10-19T17:07:27.110Z,0.00
2022-10-19T17:08:36.671Z,0.00
2022-10-19T17:09:41.297Z,0.00
2022-10-19T17:10:28.202Z,0.00
2022-10-19T17:11:28.540Z,0.00
2022-10-19T17:12:28.859Z,0.00
2022-10-19T17:13:29.235Z,0.00
2022-10-19T17:14:29.586Z,0.00
2022-10-19T17:15:42.478Z,0.00
2022-10-19T17:16:30.361Z,0.00
2022-10-19T17:17:30.704Z,0.00
2022-10-19T17:18:31.016Z,0.00
2022-10-19T17:19:31.390Z,0.00
2022-10-19T17:20:31.719Z,0.00
2022-10-19T17:21:32.108Z,0.00
2022-10-19T17:22:32.714Z,0.00
2022-10-19T17:23:32.761Z,0.00
2022-10-19T17:24:33.137Z,0.00
2022-10-19T17:25:33.503Z,0.00
2022-10-19T17:26:33.893Z,0.00
2022-10-19T17:27:34.221Z,0.00
2022-10-19T17:28:34.590Z,0.00
2022-10-19T17:29:34.956Z,0.00
2022-10-19T17:30:35.327Z,0.00
2022-10-19T17:31:35.749Z,0.00
2022-10-19T17:32:36.293Z,0.00
2022-10-19T17:33:36.382Z,0.00
2022-10-19T17:34:36.743Z,0.00
2022-10-19T17:35:37.111Z,0.00
2022-10-19T17:36:37.585Z,0.00
2022-10-19T17:37:38.179Z,0.00
2022-10-19T17:38:38.184Z,0.00
2022-10-19T17:39:38.564Z,0.00
2022-10-19T17:40:38.898Z,0.00
2022-10-19T17:41:39.284Z,0.00
2022-10-19T17:42:39.620Z,0.00
2022-10-19T17:43:39.939Z,0.00
2022-10-19T17:44:40.303Z,0.00
2022-10-19T17:45:40.684Z,0.00
2022-10-19T17:46:41.011Z,0.00
2022-10-19T17:47:41.328Z,0.00
2022-10-19T17:48:41.697Z,0.00
2022-10-19T17:49:42.040Z,0.00
2022-10-19T17:50:42.391Z,0.00
2022-10-19T17:51:42.742Z,0.00
2022-10-19T17:52:43.075Z,0.00
2022-10-19T17:53:43.445Z,0.00
2022-10-19T17:54:54.560Z,0.00
2022-10-19T17:55:44.182Z,0.00
2022-10-19T17:56:44.557Z,0.00
2022-10-19T17:57:44.870Z,0.00
2022-10-19T17:58:45.244Z,0.00
2022-10-19T17:59:52.423Z,0.00
2022-10-19T18:00:45.939Z,0.00
2022-10-19T18:01:46.296Z,0.00
2022-10-19T18:02:46.764Z,0.00
2022-10-19T18:03:46.979Z,0.00
2022-10-19T18:04:47.324Z,0.00
2022-10-19T18:05:47.687Z,0.00
2022-10-19T18:06:48.085Z,0.00
2022-10-19T18:07:48.398Z,0.00
2022-10-19T18:08:48.787Z,0.00
2022-10-19T18:09:49.114Z,0.00
2022-10-19T18:10:49.482Z,0.00
2022-10-19T18:11:49.850Z,0.00
2022-10-19T18:12:50.209Z,0.00
2022-10-19T18:13:50.581Z,0.00
2022-10-19T18:14:50.943Z,0.00
2022-10-19T18:15:51.296Z,0.00
2022-10-19T18:16:51.673Z,0.00
2022-10-19T18:17:51.996Z,0.00
2022-10-19T18:18:52.367Z,0.00
2022-10-19T18:19:52.705Z,0.00
2022-10-19T18:20:53.081Z,0.00
2022-10-19T18:21:53.444Z,0.00
2022-10-19T18:22:53.803Z,0.00
2022-10-19T18:23:54.178Z,0.00
2022-10-19T18:24:54.536Z,0.00
2022-10-19T18:25:54.906Z,0.00
2022-10-19T18:26:55.303Z,0.00
2022-10-19T18:27:55.639Z,0.00
2022-10-19T18:28:56.017Z,0.00
2022-10-19T18:29:56.365Z,0.00
2022-10-19T18:30:56.727Z,0.00
2022-10-19T18:31:57.127Z,0.00
2022-10-19T18:32:57.431Z,0.00
2022-10-19T18:33:57.801Z,0.00
2022-10-19T18:34:58.162Z,0.00
2022-10-19T18:35:58.533Z,0.00
2022-10-19T18:36:58.931Z,0.00
2022-10-19T18:37:59.262Z,0.00
2022-10-19T18:38:59.620Z,0.00
2022-10-19T18:39:59.944Z,0.00
2022-10-19T18:41:00.356Z,0.00
2022-10-19T18:42:00.672Z,0.00
2022-10-19T18:43:01.012Z,0.00
2022-10-19T18:44:01.377Z,0.00
2022-10-19T18:45:01.740Z,0.00
2022-10-19T18:46:02.105Z,0.00
2022-10-19T18:47:02.487Z,0.00
2022-10-19T18:48:02.801Z,0.00
2022-10-19T18:49:03.168Z,0.00
2022-10-19T18:50:03.562Z,0.00
2022-10-19T18:51:03.900Z,0.00
2022-10-19T18:52:04.281Z,0.00
2022-10-19T18:53:04.620Z,0.00
2022-10-19T18:54:04.981Z,0.00
2022-10-19T18:55:05.339Z,0.00
2022-10-19T18:56:05.695Z,0.00
2022-10-19T18:57:06.088Z,0.00
2022-10-19T18:58:06.406Z,0.00
2022-10-19T18:59:06.777Z,0.00
2022-10-19T19:00:07.145Z,0.00
2022-10-19T19:01:07.516Z,0.00
2022-10-19T19:02:13.745Z,0.00
2022-10-19T19:03:08.243Z,0.00
2022-10-19T19:04:08.593Z,0.00
2022-10-19T19:05:08.964Z,0.00
2022-10-19T19:06:09.334Z,0.00
2022-10-19T19:07:09.720Z,0.00
2022-10-19T19:08:10.047Z,0.00
2022-10-19T19:09:10.423Z,0.00
2022-10-19T19:10:10.757Z,0.00
2022-10-19T19:11:11.106Z,0.00
2022-10-19T19:12:11.472Z,0.00
2022-10-19T19:13:11.841Z,0.00
2022-10-19T19:14:12.215Z,0.00
2022-10-19T19:15:12.585Z,0.00
2022-10-19T19:16:12.950Z,0.00
2022-10-19T19:17:13.298Z,0.00
2022-10-19T19:18:13.668Z,0.00
2022-10-19T19:19:14.000Z,0.00
2022-10-19T19:20:14.371Z,0.00
2022-10-19T19:21:14.742Z,0.00
2022-10-19T19:22:15.082Z,0.00
2022-10-19T19:23:15.408Z,0.00
2022-10-19T19:24:15.775Z,0.00
2022-10-19T19:25:16.145Z,0.00
2022-10-19T19:26:16.514Z,0.00
2022-10-19T19:27:16.932Z,0.00
2022-10-19T19:28:17.230Z,0.00
2022-10-19T19:29:17.595Z,0.00
2022-10-19T19:30:17.959Z,0.00
2022-10-19T19:31:18.328Z,0.00
2022-10-19T19:32:18.733Z,0.00
2022-10-19T19:33:19.030Z,0.00
2022-10-19T19:34:19.402Z,0.00
2022-10-19T19:35:19.768Z,0.00
2022-10-19T19:36:20.139Z,0.00
2022-10-19T19:37:20.525Z,0.00
2022-10-19T19:38:20.894Z,0.00
2022-10-19T19:39:21.207Z,0.00
2022-10-19T19:40:21.582Z,0.00
2022-10-19T19:41:21.916Z,0.00
2022-10-19T19:42:25.674Z,0.00
2022-10-19T19:43:22.627Z,0.00
2022-10-19T19:44:22.958Z,0.00
2022-10-19T19:45:23.316Z,0.00
2022-10-19T19:46:23.672Z,0.00
2022-10-19T19:47:24.047Z,0.00
2022-10-19T19:48:24.364Z,0.00
2022-10-19T19:49:24.735Z,0.00
2022-10-19T19:50:25.090Z,0.00
2022-10-19T19:51:25.457Z,0.00
2022-10-19T19:52:25.838Z,0.00
2022-10-19T19:53:26.190Z,0.00
2022-10-19T19:54:26.560Z,0.00
2022-10-19T19:55:26.936Z,0.00
2022-10-19T19:56:27.303Z,0.00
2022-10-19T19:57:27.680Z,0.00
2022-10-19T19:58:28.007Z,0.00
2022-10-19T19:59:28.365Z,0.00
2022-10-19T20:00:28.741Z,0.00
2022-10-19T20:01:29.084Z,0.00
2022-10-19T20:02:29.448Z,0.00
2022-10-19T20:03:29.763Z,0.00
2022-10-19T20:04:30.128Z,0.00
2022-10-19T20:05:30.496Z,0.00
2022-10-19T20:06:30.862Z,0.00
2022-10-19T20:07:31.244Z,0.00
2022-10-19T20:08:31.715Z,0.00
2022-10-19T20:09:31.933Z,0.00
2022-10-19T20:10:32.298Z,0.00
2022-10-19T20:11:32.634Z,0.00
2022-10-19T20:12:33.016Z,0.00
2022-10-19T20:13:33.345Z,0.00
2022-10-19T20:14:39.702Z,0.00
2022-10-19T20:15:34.050Z,0.00
2022-10-19T20:16:34.406Z,0.00
2022-10-19T20:17:35.099Z,0.00
2022-10-19T20:18:35.110Z,0.00
2022-10-19T20:19:35.486Z,0.00
2022-10-19T20:20:35.814Z,0.00
2022-10-19T20:21:36.186Z,0.00
2022-10-19T20:22:36.547Z,0.00
2022-10-19T20:23:36.892Z,0.00
2022-10-19T20:24:37.830Z,0.00
2022-10-19T20:25:37.594Z,0.00
2022-10-19T20:26:37.939Z,0.00
2022-10-19T20:27:38.443Z,0.00
2022-10-19T20:28:38.652Z,0.00
2022-10-19T20:29:39.010Z,0.00
2022-10-19T20:30:39.378Z,0.00
2022-10-19T20:31:40.203Z,0.00
2022-10-19T20:32:40.142Z,0.00
2022-10-19T20:33:40.461Z,0.00
2022-10-19T20:34:40.829Z,0.00
2022-10-19T20:35:41.197Z,0.00
2022-10-19T20:36:41.562Z,0.00
2022-10-19T20:37:41.964Z,0.00
2022-10-19T20:38:42.309Z,0.00
2022-10-19T20:39:42.657Z,0.00
2022-10-19T20:40:43.018Z,0.00
2022-10-19T20:41:43.388Z,0.00
2022-10-19T20:42:43.743Z,0.00
2022-10-19T20:43:44.073Z,0.00
2022-10-19T20:44:44.394Z,0.00
2022-10-19T20:45:44.766Z,0.00
2022-10-19T20:46:45.125Z,0.00
2022-10-19T20:47:45.513Z,0.00
2022-10-19T20:48:45.848Z,0.00
2022-10-19T20:49:46.225Z,0.00
2022-10-19T20:50:46.582Z,0.00
2022-10-19T20:51:46.971Z,0.00
2022-10-19T20:52:47.304Z,0.00
2022-10-19T20:53:47.633Z,0.00
2022-10-19T20:54:48.003Z,0.00
2022-10-19T20:55:48.341Z,0.00
2022-10-19T20:56:48.704Z,0.00
2022-10-19T20:57:49.091Z,0.00
2022-10-19T20:58:49.492Z,0.00
2022-10-19T20:59:49.769Z,0.00
2022-10-19T21:00:50.133Z,0.00
2022-10-19T21:01:50.526Z,0.00
2022-10-19T21:02:50.878Z,0.00
2022-10-19T21:03:51.210Z,0.00
2022-10-19T21:04:51.583Z,0.00
2022-10-19T21:05:51.967Z,0.00
2022-10-19T21:06:52.295Z,0.00
2022-10-19T21:07:52.683Z,0.00
2022-10-19T21:08:53.069Z,0.00
2022-10-19T21:09:53.356Z,0.00
2022-10-19T21:10:53.699Z,0.00
2022-10-19T21:11:54.072Z,0.00
2022-10-19T21:12:54.451Z,0.00
2022-10-19T21:13:54.805Z,0.00
2022-10-19T21:14:55.175Z,0.00
